createdAt,value
2023-01-09T00:00:39.007Z,93352.28
2023-01-09T00:03:07.361Z,93358.56
2023-01-09T00:05:33.728Z,93352.31
2023-01-09T00:08:01.082Z,93356.34
2023-01-09T00:10:28.817Z,93361.38
2023-01-09T00:12:55.421Z,93357.53
2023-01-09T00:15:21.741Z,93359.97
2023-01-09T00:17:48.171Z,93355.28
2023-01-09T00:20:14.525Z,93350.44
2023-01-09T00:22:40.851Z,93346.81
2023-01-09T00:25:07.368Z,93338.31
2023-01-09T00:27:34.070Z,93342.19
2023-01-09T00:30:00.619Z,93335.47
2023-01-09T00:32:27.218Z,93345.63
2023-01-09T00:34:55.790Z,93343.97
2023-01-09T00:37:22.382Z,93342.75
2023-01-09T00:39:49.713Z,93346.00
2023-01-09T00:42:16.101Z,93340.31
2023-01-09T00:44:42.457Z,93349.25
2023-01-09T00:47:10.303Z,93349.88
2023-01-09T00:49:36.639Z,93355.34
2023-01-09T00:52:02.975Z,93357.19
2023-01-09T00:54:29.383Z,93363.88
2023-01-09T00:56:55.780Z,93362.06
2023-01-09T00:59:22.158Z,93353.16
2023-01-09T01:01:51.122Z,93338.97
2023-01-09T01:04:17.491Z,93349.91
2023-01-09T01:06:44.877Z,93342.19
2023-01-09T01:09:11.431Z,93345.44
2023-01-09T01:11:38.203Z,93350.72
2023-01-09T01:14:04.532Z,93365.69
2023-01-09T01:16:31.598Z,93405.25
2023-01-09T01:18:57.992Z,93412.75
2023-01-09T01:21:24.365Z,93491.88
2023-01-09T01:23:52.709Z,93498.09
2023-01-09T01:26:19.194Z,93520.59
2023-01-09T01:28:47.773Z,93516.91
2023-01-09T01:31:14.140Z,93513.13
2023-01-09T01:33:40.478Z,93507.19
2023-01-09T01:36:06.864Z,93513.69
2023-01-09T01:38:33.510Z,93523.25
2023-01-09T01:40:59.855Z,93536.31
2023-01-09T01:43:28.297Z,93548.84
2023-01-09T01:45:54.803Z,93558.16
2023-01-09T01:48:21.395Z,93585.22
2023-01-09T01:50:48.089Z,93607.44
2023-01-09T01:53:14.424Z,93615.75
2023-01-09T01:55:40.828Z,93651.97
2023-01-09T01:58:07.162Z,93663.81
2023-01-09T02:00:33.487Z,93652.28
2023-01-09T02:02:59.887Z,93645.84
2023-01-09T02:05:26.235Z,93659.91
2023-01-09T02:07:52.640Z,93667.53
2023-01-09T02:10:18.969Z,93689.78
2023-01-09T02:12:45.644Z,93688.59
2023-01-09T02:15:11.974Z,93673.13
2023-01-09T02:17:38.530Z,93683.13
2023-01-09T02:20:05.678Z,93694.97
2023-01-09T02:22:32.351Z,93707.03
2023-01-09T02:24:58.694Z,93717.56
2023-01-09T02:27:25.162Z,93707.53
2023-01-09T02:29:51.527Z,93699.81
2023-01-09T02:32:18.349Z,93712.94
2023-01-09T02:34:44.690Z,93724.25
2023-01-09T02:37:11.056Z,93736.31
2023-01-09T02:39:37.428Z,93745.97
2023-01-09T02:42:03.892Z,93776.38
2023-01-09T02:44:30.223Z,93765.91
2023-01-09T02:46:56.593Z,93772.06
2023-01-09T02:49:22.981Z,93770.31
2023-01-09T02:51:49.407Z,93775.53
2023-01-09T02:54:18.025Z,93766.84
2023-01-09T02:56:44.358Z,93766.84
2023-01-09T02:59:10.681Z,93773.66
2023-01-09T03:01:37.112Z,93765.41
2023-01-09T03:04:03.509Z,93767.56
2023-01-09T03:06:31.918Z,93763.75
2023-01-09T03:08:58.265Z,93771.59
2023-01-09T03:11:24.642Z,93783.66
2023-01-09T03:13:51.007Z,93788.22
2023-01-09T03:16:17.434Z,93788.84
2023-01-09T03:18:43.849Z,93782.25
2023-01-09T03:21:10.322Z,93780.25
2023-01-09T03:23:36.691Z,93798.56
2023-01-09T03:26:03.157Z,93790.63
2023-01-09T03:28:29.483Z,93789.13
2023-01-09T03:30:55.808Z,93789.44
2023-01-09T03:33:22.348Z,93806.25
2023-01-09T03:35:48.694Z,93811.50
2023-01-09T03:38:15.035Z,93840.22
2023-01-09T03:40:41.578Z,93848.81
2023-01-09T03:43:07.921Z,93853.16
2023-01-09T03:45:34.306Z,93868.25
2023-01-09T03:48:02.693Z,93881.09
2023-01-09T03:50:29.057Z,93905.94
2023-01-09T03:52:55.448Z,93912.81
2023-01-09T03:55:23.909Z,93910.19
2023-01-09T03:57:50.458Z,93907.41
2023-01-09T04:00:16.816Z,93919.69
2023-01-09T04:02:43.174Z,93918.53
2023-01-09T04:05:09.566Z,93923.91
2023-01-09T04:07:35.953Z,93922.28
2023-01-09T04:10:02.298Z,93925.72
2023-01-09T04:12:30.977Z,93918.53
2023-01-09T04:14:57.322Z,93910.16
2023-01-09T04:17:23.759Z,93911.63
2023-01-09T04:19:50.460Z,93916.38
2023-01-09T04:22:16.787Z,93931.59
2023-01-09T04:24:43.228Z,93936.00
2023-01-09T04:27:09.607Z,93937.97
2023-01-09T04:29:35.987Z,93940.25
2023-01-09T04:32:02.430Z,93948.28
2023-01-09T04:34:28.802Z,93946.13
2023-01-09T04:36:55.232Z,93955.81
2023-01-09T04:39:21.861Z,93960.69
2023-01-09T04:41:48.239Z,93955.94
2023-01-09T04:44:14.702Z,93960.88
2023-01-09T04:46:41.033Z,93958.75
2023-01-09T04:49:07.388Z,93954.81
2023-01-09T04:51:33.860Z,93959.88
2023-01-09T04:54:01.193Z,93964.16
2023-01-09T04:56:27.564Z,93964.81
2023-01-09T04:58:54.995Z,93967.59
2023-01-09T05:01:21.540Z,93964.47
2023-01-09T05:03:50.216Z,93971.84
2023-01-09T05:06:19.022Z,93971.00
2023-01-09T05:08:45.379Z,93972.66
2023-01-09T05:11:11.752Z,93961.50
2023-01-09T05:13:45.516Z,93968.38
2023-01-09T05:16:11.972Z,93959.06
2023-01-09T05:18:38.375Z,93969.56
2023-01-09T05:21:04.727Z,93968.88
2023-01-09T05:23:31.319Z,93972.66
2023-01-09T05:25:57.690Z,93977.72
2023-01-09T05:28:24.325Z,93987.34
2023-01-09T05:30:50.883Z,93989.97
2023-01-09T05:33:17.434Z,93995.84
2023-01-09T05:35:44.127Z,93991.28
2023-01-09T05:38:11.185Z,93999.47
2023-01-09T05:40:40.638Z,93989.19
2023-01-09T05:43:07.213Z,93984.44
2023-01-09T05:45:33.616Z,93982.13
2023-01-09T05:48:00.214Z,93986.38
2023-01-09T05:50:27.188Z,93978.84
2023-01-09T05:52:53.969Z,93981.13
2023-01-09T05:55:20.359Z,93970.63
2023-01-09T05:57:46.775Z,93968.22
2023-01-09T06:00:13.319Z,93971.16
2023-01-09T06:02:39.912Z,93980.31
2023-01-09T06:05:06.418Z,93985.72
2023-01-09T06:07:32.779Z,93992.91
2023-01-09T06:09:59.204Z,93986.03
2023-01-09T06:12:25.701Z,93987.03
2023-01-09T06:14:53.099Z,93995.19
2023-01-09T06:17:19.579Z,93991.25
2023-01-09T06:19:46.037Z,93985.88
2023-01-09T06:22:12.412Z,93993.56
2023-01-09T06:24:38.752Z,93984.41
2023-01-09T06:27:05.119Z,93975.25
2023-01-09T06:29:31.517Z,93976.19
2023-01-09T06:32:01.211Z,93982.75
2023-01-09T06:34:27.575Z,93967.81
2023-01-09T06:36:54.331Z,93964.66
2023-01-09T06:39:20.675Z,93969.06
2023-01-09T06:41:48.472Z,93963.31
2023-01-09T06:44:16.225Z,93968.88
2023-01-09T06:46:42.612Z,93967.53
2023-01-09T06:49:11.114Z,93964.25
2023-01-09T06:51:37.664Z,93970.16
2023-01-09T06:54:04.260Z,93967.06
2023-01-09T06:56:30.732Z,93972.09
2023-01-09T06:58:57.109Z,93966.44
2023-01-09T07:01:23.598Z,93954.44
2023-01-09T07:03:50.129Z,93952.81
2023-01-09T07:06:16.615Z,93950.53
2023-01-09T07:08:43.171Z,93946.94
2023-01-09T07:11:10.528Z,93945.25
2023-01-09T07:13:37.107Z,93930.25
2023-01-09T07:16:03.578Z,93936.53
2023-01-09T07:18:30.027Z,93937.03
2023-01-09T07:20:56.368Z,93937.03
2023-01-09T07:23:22.746Z,93940.94
2023-01-09T07:25:49.078Z,93948.63
2023-01-09T07:28:15.748Z,93939.16
2023-01-09T07:30:42.102Z,93934.75
2023-01-09T07:33:08.438Z,93943.44
2023-01-09T07:35:34.816Z,93941.47
2023-01-09T07:38:01.424Z,93938.16
2023-01-09T07:40:27.966Z,93940.81
2023-01-09T07:42:54.590Z,93944.44
2023-01-09T07:45:20.938Z,93941.13
2023-01-09T07:47:47.318Z,93943.22
2023-01-09T07:50:13.941Z,93939.25
2023-01-09T07:52:41.311Z,93930.94
2023-01-09T07:55:07.836Z,93935.50
2023-01-09T07:57:34.230Z,93941.84
2023-01-09T08:00:02.937Z,93929.91
2023-01-09T08:02:30.286Z,93919.72
2023-01-09T08:04:57.018Z,93926.69
2023-01-09T08:07:23.383Z,93931.88
2023-01-09T08:09:49.748Z,93936.66
2023-01-09T08:12:16.128Z,93932.41
2023-01-09T08:14:42.514Z,93933.59
2023-01-09T08:17:09.247Z,93930.94
2023-01-09T08:19:35.883Z,93937.97
2023-01-09T08:22:04.658Z,93942.44
2023-01-09T08:24:31.298Z,93946.53
2023-01-09T08:26:57.688Z,93942.13
2023-01-09T08:29:26.014Z,93933.00
2023-01-09T08:31:53.256Z,93935.06
2023-01-09T08:34:19.778Z,93926.91
2023-01-09T08:36:48.409Z,93937.63
2023-01-09T08:39:17.282Z,93933.53
2023-01-09T08:41:43.724Z,93920.75
2023-01-09T08:44:10.207Z,93919.19
2023-01-09T08:46:36.625Z,93913.19
2023-01-09T08:49:03.167Z,93919.72
2023-01-09T08:51:29.622Z,93908.84
2023-01-09T08:53:55.943Z,93905.22
2023-01-09T08:56:22.460Z,93915.13
2023-01-09T08:58:50.738Z,93905.81
2023-01-09T09:01:17.197Z,93911.16
2023-01-09T09:03:43.740Z,93914.91
2023-01-09T09:06:10.293Z,93909.34
2023-01-09T09:08:36.735Z,93918.69
2023-01-09T09:11:03.212Z,93924.50
2023-01-09T09:13:29.581Z,93925.06
2023-01-09T09:15:56.271Z,93928.66
2023-01-09T09:18:25.726Z,93921.09
2023-01-09T09:20:54.722Z,93916.06
2023-01-09T09:23:22.354Z,93912.91
2023-01-09T09:25:48.880Z,93918.16
2023-01-09T09:28:16.247Z,93913.59
2023-01-09T09:30:42.590Z,93918.25
2023-01-09T09:33:09.370Z,93923.44
2023-01-09T09:35:36.937Z,93927.81
2023-01-09T09:38:05.195Z,93921.03
2023-01-09T09:40:32.014Z,93920.75
2023-01-09T09:42:58.370Z,93908.00
2023-01-09T09:45:24.952Z,93921.16
2023-01-09T09:47:51.321Z,93929.47
2023-01-09T09:50:17.698Z,93934.63
2023-01-09T09:52:44.275Z,93941.34
2023-01-09T09:55:10.779Z,93944.28
2023-01-09T09:57:37.446Z,93947.00
2023-01-09T10:00:06.151Z,93952.69
2023-01-09T10:02:32.517Z,93957.06
2023-01-09T10:04:59.900Z,93957.34
2023-01-09T10:07:26.286Z,93964.94
2023-01-09T10:09:53.867Z,93953.50
2023-01-09T10:12:20.199Z,93966.56
2023-01-09T10:14:46.539Z,93973.78
2023-01-09T10:17:13.944Z,93969.59
2023-01-09T10:19:41.279Z,93978.13
2023-01-09T10:22:07.621Z,93970.31
2023-01-09T10:24:34.003Z,93979.78
2023-01-09T10:27:00.402Z,93979.91
2023-01-09T10:29:26.753Z,93988.69
2023-01-09T10:31:54.157Z,93984.25
2023-01-09T10:34:20.779Z,93993.56
2023-01-09T10:36:50.561Z,93984.94
2023-01-09T10:39:18.107Z,93974.22
2023-01-09T10:41:44.498Z,93972.34
2023-01-09T10:44:11.171Z,93982.91
2023-01-09T10:46:37.812Z,93985.25
2023-01-09T10:49:06.906Z,93989.47
2023-01-09T10:51:33.360Z,93996.03
2023-01-09T10:54:02.906Z,93975.00
2023-01-09T10:56:32.748Z,93984.09
2023-01-09T10:58:59.404Z,93972.69
2023-01-09T11:01:26.857Z,93985.66
2023-01-09T11:03:53.273Z,93977.03
2023-01-09T11:06:19.709Z,93981.31
2023-01-09T11:08:46.112Z,93978.69
2023-01-09T11:11:12.689Z,93995.03
2023-01-09T11:13:41.425Z,93983.69
2023-01-09T11:16:08.567Z,93992.97
2023-01-09T11:18:35.110Z,94004.59
2023-01-09T11:21:01.517Z,94002.81
2023-01-09T11:23:27.911Z,93998.25
2023-01-09T11:25:55.288Z,94006.22
2023-01-09T11:28:21.683Z,94006.69
2023-01-09T11:30:48.315Z,94002.31
2023-01-09T11:33:14.714Z,94008.75
2023-01-09T11:35:41.183Z,93994.00
2023-01-09T11:38:07.599Z,93993.56
2023-01-09T11:40:33.978Z,93987.84
2023-01-09T11:43:02.569Z,93992.47
2023-01-09T11:45:28.943Z,93978.81
2023-01-09T11:47:55.327Z,93996.66
2023-01-09T11:50:21.710Z,93997.19
2023-01-09T11:52:48.067Z,93990.63
2023-01-09T11:55:14.456Z,93996.47
2023-01-09T11:57:40.840Z,93989.19
2023-01-09T12:00:07.225Z,93972.13
2023-01-09T12:02:33.632Z,93988.66
2023-01-09T12:05:00.013Z,93978.25
2023-01-09T12:07:26.386Z,93977.88
2023-01-09T12:09:53.020Z,93981.66
2023-01-09T12:12:19.684Z,93992.75
2023-01-09T12:14:46.095Z,93978.69
2023-01-09T12:17:12.473Z,93977.59
2023-01-09T12:19:38.872Z,93976.44
2023-01-09T12:22:05.247Z,93975.72
2023-01-09T12:24:31.588Z,93974.53
2023-01-09T12:26:59.191Z,93981.38
2023-01-09T12:29:25.546Z,93981.66
2023-01-09T12:31:51.939Z,93987.28
2023-01-09T12:34:18.348Z,93989.66
2023-01-09T12:36:44.808Z,93976.25
2023-01-09T12:39:13.541Z,93977.94
2023-01-09T12:41:44.738Z,93978.88
2023-01-09T12:44:11.092Z,93978.69
2023-01-09T12:46:41.823Z,93986.56
2023-01-09T12:49:08.391Z,93982.94
2023-01-09T12:51:34.724Z,93979.69
2023-01-09T12:54:01.061Z,93991.28
2023-01-09T12:56:27.433Z,93973.50
2023-01-09T12:58:54.031Z,93979.56
2023-01-09T13:01:20.426Z,93982.00
2023-01-09T13:03:46.883Z,93983.13
2023-01-09T13:06:14.850Z,93987.50
2023-01-09T13:08:41.213Z,93992.81
2023-01-09T13:11:19.389Z,93989.25
2023-01-09T13:13:46.509Z,93978.19
2023-01-09T13:16:12.962Z,93985.06
2023-01-09T13:18:40.120Z,93989.53
2023-01-09T13:21:06.484Z,93994.53
2023-01-09T13:23:32.841Z,94000.88
2023-01-09T13:26:06.538Z,93991.06
2023-01-09T13:28:33.288Z,94019.16
2023-01-09T13:30:59.605Z,94012.31
2023-01-09T13:33:26.049Z,94007.97
2023-01-09T13:35:52.705Z,94037.63
2023-01-09T13:38:19.397Z,94039.25
2023-01-09T13:40:47.490Z,94044.16
2023-01-09T13:43:18.408Z,94046.22
2023-01-09T13:45:45.151Z,94065.03
2023-01-09T13:48:11.609Z,94071.06
2023-01-09T13:50:37.952Z,94070.06
2023-01-09T13:53:04.478Z,94061.78
2023-01-09T13:55:31.084Z,94062.63
2023-01-09T13:57:57.461Z,94066.63
2023-01-09T14:00:26.093Z,94063.03
2023-01-09T14:02:53.482Z,94066.88
2023-01-09T14:05:19.848Z,94073.13
2023-01-09T14:07:46.226Z,94062.81
2023-01-09T14:10:15.806Z,94065.44
2023-01-09T14:12:42.242Z,94076.03
2023-01-09T14:15:10.941Z,94079.09
2023-01-09T14:17:37.445Z,94089.59
2023-01-09T14:20:04.026Z,94076.41
2023-01-09T14:22:31.345Z,94092.28
2023-01-09T14:25:00.545Z,94088.44
2023-01-09T14:27:28.919Z,94093.13
2023-01-09T14:29:56.180Z,94091.81
2023-01-09T14:32:24.897Z,94103.59
2023-01-09T14:34:52.537Z,94103.09
2023-01-09T14:37:19.736Z,94111.25
2023-01-09T14:39:46.336Z,94120.59
2023-01-09T14:42:12.743Z,94128.00
2023-01-09T14:44:40.533Z,94134.34
2023-01-09T14:47:07.476Z,94138.00
2023-01-09T14:49:33.901Z,94144.19
2023-01-09T14:52:00.765Z,94149.41
2023-01-09T14:54:27.238Z,94154.34
2023-01-09T14:56:55.857Z,94156.28
2023-01-09T14:59:23.235Z,94158.25
2023-01-09T15:01:50.054Z,94165.47
2023-01-09T15:04:16.465Z,94180.03
2023-01-09T15:06:43.004Z,94162.44
2023-01-09T15:09:09.411Z,94182.06
2023-01-09T15:11:35.803Z,94184.38
2023-01-09T15:14:03.783Z,94199.75
2023-01-09T15:16:31.857Z,94199.03
2023-01-09T15:18:58.230Z,94208.22
2023-01-09T15:21:34.107Z,94208.13
2023-01-09T15:24:00.737Z,94210.88
2023-01-09T15:26:27.719Z,94220.38
2023-01-09T15:28:56.416Z,94208.69
2023-01-09T15:31:22.845Z,94202.13
2023-01-09T15:33:53.860Z,94212.59
2023-01-09T15:36:20.932Z,94207.34
2023-01-09T15:38:48.293Z,94203.34
2023-01-09T15:41:14.618Z,94207.97
2023-01-09T15:43:40.966Z,94219.16
2023-01-09T15:46:07.628Z,94225.13
2023-01-09T15:48:33.987Z,94240.44
2023-01-09T15:51:00.389Z,94244.13
2023-01-09T15:53:26.734Z,94251.53
2023-01-09T15:55:55.564Z,94250.69
2023-01-09T15:58:22.123Z,94253.97
2023-01-09T16:00:51.436Z,94256.59
2023-01-09T16:03:18.041Z,94260.75
2023-01-09T16:05:44.434Z,94280.91
2023-01-09T16:08:11.367Z,94274.78
2023-01-09T16:10:41.188Z,94279.19
2023-01-09T16:13:07.553Z,94281.59
2023-01-09T16:15:34.343Z,94282.75
2023-01-09T16:18:03.089Z,94280.34
2023-01-09T16:20:29.472Z,94276.56
2023-01-09T16:22:55.862Z,94283.88
2023-01-09T16:25:22.242Z,94283.28
2023-01-09T16:27:48.629Z,94280.97
2023-01-09T16:30:16.654Z,94282.63
2023-01-09T16:32:43.379Z,94285.53
2023-01-09T16:35:09.757Z,94282.94
2023-01-09T16:37:36.174Z,94281.69
2023-01-09T16:40:02.512Z,94295.81
2023-01-09T16:42:28.862Z,94298.44
2023-01-09T16:44:55.234Z,94300.38
2023-01-09T16:47:21.627Z,94303.44
2023-01-09T16:49:48.015Z,94323.03
2023-01-09T16:52:14.390Z,94330.06
2023-01-09T16:54:40.729Z,94321.75
2023-01-09T16:57:07.100Z,94324.38
2023-01-09T16:59:34.317Z,94321.94
2023-01-09T17:02:00.836Z,94325.81
2023-01-09T17:04:27.409Z,94325.38
2023-01-09T17:06:53.803Z,94324.50
2023-01-09T17:09:20.170Z,94331.66
2023-01-09T17:11:47.236Z,94342.34
2023-01-09T17:14:14.339Z,94335.97
2023-01-09T17:16:41.164Z,94335.06
2023-01-09T17:19:07.571Z,94343.81
2023-01-09T17:21:33.928Z,94350.75
2023-01-09T17:24:00.321Z,94361.50
2023-01-09T17:26:26.692Z,94375.16
2023-01-09T17:28:53.078Z,94380.56
2023-01-09T17:31:19.772Z,94373.06
2023-01-09T17:33:46.153Z,94379.22
2023-01-09T17:36:12.598Z,94382.00
2023-01-09T17:38:39.024Z,94382.81
2023-01-09T17:41:05.465Z,94382.22
2023-01-09T17:43:31.832Z,94398.88
2023-01-09T17:45:58.330Z,94402.91
2023-01-09T17:48:25.191Z,94415.69
2023-01-09T17:50:51.704Z,94413.91
2023-01-09T17:53:18.076Z,94412.03
2023-01-09T17:55:44.539Z,94412.56
2023-01-09T17:58:10.886Z,94428.69
2023-01-09T18:00:37.326Z,94431.81
2023-01-09T18:03:03.702Z,94439.22
2023-01-09T18:05:30.047Z,94441.59
2023-01-09T18:07:56.600Z,94442.94
2023-01-09T18:10:23.045Z,94442.34
2023-01-09T18:12:49.732Z,94447.81
2023-01-09T18:15:16.436Z,94454.69
2023-01-09T18:17:42.842Z,94470.59
2023-01-09T18:20:09.476Z,94470.44
2023-01-09T18:22:35.797Z,94470.00
2023-01-09T18:25:02.478Z,94476.25
2023-01-09T18:27:28.905Z,94472.78
2023-01-09T18:29:56.317Z,94476.59
2023-01-09T18:32:22.881Z,94480.38
2023-01-09T18:34:49.221Z,94475.69
2023-01-09T18:37:15.731Z,94489.41
2023-01-09T18:39:43.143Z,94492.19
2023-01-09T18:42:09.532Z,94489.50
2023-01-09T18:44:35.937Z,94508.50
2023-01-09T18:47:02.533Z,94505.19
2023-01-09T18:49:28.911Z,94505.88
2023-01-09T18:51:55.385Z,94504.16
2023-01-09T18:54:21.749Z,94507.97
2023-01-09T18:56:48.078Z,94506.03
2023-01-09T18:59:14.418Z,94516.28
2023-01-09T19:01:46.994Z,94514.31
2023-01-09T19:04:13.481Z,94516.25
2023-01-09T19:06:40.162Z,94532.34
2023-01-09T19:09:07.527Z,94520.09
2023-01-09T19:11:33.935Z,94514.63
2023-01-09T19:14:00.307Z,94529.47
2023-01-09T19:16:26.773Z,94526.94
2023-01-09T19:18:53.195Z,94532.09
2023-01-09T19:21:19.795Z,94525.69
2023-01-09T19:23:47.197Z,94524.94
2023-01-09T19:26:13.647Z,94532.19
2023-01-09T19:28:40.228Z,94531.53
2023-01-09T19:31:06.599Z,94539.69
2023-01-09T19:33:35.287Z,94539.91
2023-01-09T19:36:01.882Z,94546.50
2023-01-09T19:38:28.269Z,94547.16
2023-01-09T19:40:54.613Z,94543.63
2023-01-09T19:43:21.074Z,94543.94
2023-01-09T19:45:47.478Z,94543.28
2023-01-09T19:48:13.854Z,94542.69
2023-01-09T19:50:40.244Z,94552.25
2023-01-09T19:53:06.665Z,94558.91
2023-01-09T19:55:33.256Z,94564.94
2023-01-09T19:57:59.595Z,94569.47
2023-01-09T20:00:26.119Z,94574.28
2023-01-09T20:02:53.367Z,94571.63
2023-01-09T20:05:20.003Z,94567.69
2023-01-09T20:07:46.353Z,94564.50
2023-01-09T20:10:12.703Z,94564.81
2023-01-09T20:12:39.096Z,94565.19
2023-01-09T20:15:05.450Z,94568.94
2023-01-09T20:17:31.823Z,94575.09
2023-01-09T20:19:59.271Z,94567.13
2023-01-09T20:22:28.629Z,94570.22
2023-01-09T20:24:57.045Z,94575.97
2023-01-09T20:27:23.383Z,94575.53
2023-01-09T20:29:49.710Z,94575.91
2023-01-09T20:32:16.071Z,94587.78
2023-01-09T20:34:42.447Z,94583.47
2023-01-09T20:37:08.898Z,94577.34
2023-01-09T20:39:35.625Z,94588.03
2023-01-09T20:42:01.999Z,94585.78
2023-01-09T20:44:28.391Z,94588.19
2023-01-09T20:46:54.753Z,94580.78
2023-01-09T20:49:21.115Z,94593.75
2023-01-09T20:51:49.765Z,94587.28
2023-01-09T20:54:16.143Z,94593.69
2023-01-09T20:56:42.519Z,94596.75
2023-01-09T20:59:08.901Z,94597.44
2023-01-09T21:01:35.289Z,94605.00
2023-01-09T21:04:01.767Z,94617.41
2023-01-09T21:06:28.627Z,94620.59
2023-01-09T21:08:55.044Z,94620.91
2023-01-09T21:11:21.878Z,94629.78
2023-01-09T21:13:48.827Z,94623.19
2023-01-09T21:16:15.309Z,94609.31
2023-01-09T21:18:41.718Z,94623.00
2023-01-09T21:21:08.210Z,94619.81
2023-01-09T21:23:34.596Z,94616.41
2023-01-09T21:26:00.985Z,94620.84
2023-01-09T21:28:27.404Z,94629.78
2023-01-09T21:30:56.083Z,94625.50
2023-01-09T21:33:22.604Z,94603.22
2023-01-09T21:35:48.980Z,94609.03
2023-01-09T21:38:15.359Z,94611.75
2023-01-09T21:40:41.740Z,94606.25
2023-01-09T21:43:08.085Z,94620.28
2023-01-09T21:45:34.601Z,94628.50
2023-01-09T21:48:01.057Z,94633.56
2023-01-09T21:50:27.602Z,94628.59
2023-01-09T21:52:53.946Z,94645.50
2023-01-09T21:55:20.391Z,94636.94
2023-01-09T21:57:47.410Z,94640.53
2023-01-09T22:00:15.908Z,94640.22
2023-01-09T22:02:42.630Z,94652.72
2023-01-09T22:05:08.967Z,94642.84
2023-01-09T22:07:35.298Z,94641.22
2023-01-09T22:10:01.746Z,94646.53
2023-01-09T22:12:28.113Z,94647.00
2023-01-09T22:14:54.451Z,94646.59
2023-01-09T22:17:20.838Z,94653.88
2023-01-09T22:19:47.231Z,94659.78
2023-01-09T22:22:14.586Z,94668.22
2023-01-09T22:24:40.958Z,94667.94
2023-01-09T22:27:12.607Z,94679.72
2023-01-09T22:29:39.969Z,94685.25
2023-01-09T22:32:07.414Z,94681.50
2023-01-09T22:34:33.930Z,94694.97
2023-01-09T22:37:00.305Z,94699.09
2023-01-09T22:39:26.740Z,94707.66
2023-01-09T22:41:53.307Z,94709.31
2023-01-09T22:44:19.937Z,94721.13
2023-01-09T22:46:46.337Z,94727.03
2023-01-09T22:49:14.983Z,94738.19
2023-01-09T22:51:41.345Z,94744.78
2023-01-09T22:54:07.916Z,94763.78
2023-01-09T22:56:36.720Z,94768.72
2023-01-09T22:59:03.102Z,94780.19
2023-01-09T23:01:31.984Z,94786.69
2023-01-09T23:03:58.331Z,94791.94
2023-01-09T23:06:24.719Z,94799.59
2023-01-09T23:08:51.121Z,94821.25
2023-01-09T23:11:17.544Z,94820.41
2023-01-09T23:13:43.908Z,94825.38
2023-01-09T23:16:10.482Z,94828.53
2023-01-09T23:18:39.195Z,94836.75
2023-01-09T23:21:05.602Z,94841.28
2023-01-09T23:23:32.163Z,94842.69
2023-01-09T23:25:58.565Z,94848.38
2023-01-09T23:28:24.903Z,94853.75
2023-01-09T23:30:51.597Z,94858.06
2023-01-09T23:33:18.016Z,94862.59
2023-01-09T23:35:44.391Z,94857.53
2023-01-09T23:38:10.748Z,94862.63
2023-01-09T23:40:37.330Z,94860.69
2023-01-09T23:43:03.706Z,94859.97
2023-01-09T23:45:30.168Z,94859.69
2023-01-09T23:47:56.571Z,94870.28
2023-01-09T23:50:24.053Z,94870.19
2023-01-09T23:52:51.479Z,94880.47
2023-01-09T23:55:17.939Z,94878.41
2023-01-09T23:57:44.347Z,94887.34
